createdAt,value
2023-02-07T00:02:53.344Z,9.85
2023-02-07T00:05:36.874Z,9.43
2023-02-07T00:08:23.297Z,8.75
2023-02-07T00:11:03.382Z,8.57
2023-02-07T00:13:51.286Z,8.77
2023-02-07T00:16:32.370Z,9.40
2023-02-07T00:19:19.323Z,7.95
2023-02-07T00:24:46.307Z,7.97
2023-02-07T00:27:26.357Z,8.30
2023-02-07T00:30:14.302Z,8.43
2023-02-07T00:32:54.385Z,8.80
2023-02-07T00:35:41.296Z,7.90
2023-02-07T00:38:21.383Z,8.38
2023-02-07T00:41:08.291Z,8.10
2023-02-07T00:43:49.449Z,9.32
2023-02-07T00:46:36.315Z,8.10
2023-02-07T00:49:17.346Z,8.02
2023-02-07T00:52:04.312Z,8.98
2023-02-07T00:54:51.313Z,8.00
2023-02-07T00:57:38.400Z,7.95
2023-02-07T01:00:19.315Z,7.40
2023-02-07T01:05:46.297Z,7.07
2023-02-07T01:08:27.100Z,7.20
2023-02-07T01:11:19.326Z,6.53
2023-02-07T01:14:01.131Z,6.50
2023-02-07T01:16:49.321Z,6.97
2023-02-07T01:19:29.813Z,6.97
2023-02-07T01:22:16.326Z,6.55
2023-02-07T01:25:03.401Z,6.40
2023-02-07T01:27:43.317Z,6.03
2023-02-07T01:30:23.922Z,6.22
2023-02-07T01:33:10.310Z,5.97
2023-02-07T01:35:50.850Z,6.28
2023-02-07T01:38:37.309Z,6.10
2023-02-07T01:41:17.805Z,6.20
2023-02-07T01:44:08.323Z,6.15
2023-02-07T01:46:56.317Z,6.65
2023-02-07T01:49:47.315Z,6.78
2023-02-07T01:52:42.393Z,7.32
2023-02-07T01:55:29.319Z,6.15
2023-02-07T01:58:09.988Z,6.10
2023-02-07T02:00:57.292Z,6.63
2023-02-07T02:03:42.899Z,5.75
2023-02-07T02:06:30.302Z,6.13
2023-02-07T02:09:20.311Z,6.20
2023-02-07T02:12:15.350Z,6.88
2023-02-07T02:15:21.309Z,5.80
2023-02-07T02:18:33.289Z,5.35
2023-02-07T02:21:32.332Z,5.85
2023-02-07T02:24:25.505Z,6.28
2023-02-07T02:27:38.317Z,5.75
2023-02-07T02:31:03.444Z,5.85
2023-02-07T02:34:28.332Z,6.18
2023-02-07T02:37:39.290Z,5.95
2023-02-07T02:40:43.396Z,5.85
2023-02-07T02:43:36.335Z,5.90
2023-02-07T02:49:27.316Z,5.75
2023-02-07T02:52:21.304Z,6.03
2023-02-07T02:55:01.828Z,6.47
2023-02-07T02:57:57.324Z,5.78
2023-02-07T03:00:49.156Z,5.57
2023-02-07T03:04:03.308Z,6.15
2023-02-07T03:07:22.355Z,6.30
2023-02-07T03:10:38.385Z,5.85
2023-02-07T03:13:51.335Z,5.90
2023-02-07T03:16:48.316Z,6.13
2023-02-07T03:19:47.338Z,5.70
2023-02-07T03:22:32.374Z,6.43
2023-02-07T03:25:22.482Z,5.85
2023-02-07T03:28:04.419Z,5.97
2023-02-07T03:30:55.346Z,5.90
2023-02-07T03:33:35.376Z,6.03
2023-02-07T03:36:36.314Z,5.70
2023-02-07T03:39:16.384Z,6.35
2023-02-07T03:42:07.310Z,6.18
2023-02-07T03:44:49.391Z,6.07
2023-02-07T03:47:36.331Z,5.72
2023-02-07T03:50:16.366Z,6.03
2023-02-07T03:53:03.321Z,6.40
2023-02-07T03:55:43.380Z,6.00
2023-02-07T03:58:30.306Z,5.80
2023-02-07T04:01:10.443Z,6.18
2023-02-07T04:03:57.304Z,5.72
2023-02-07T04:06:37.426Z,6.00
2023-02-07T04:09:24.319Z,6.05
2023-02-07T04:12:11.351Z,5.75
2023-02-07T04:14:58.319Z,5.70
2023-02-07T04:17:45.300Z,5.97
2023-02-07T04:20:25.806Z,6.03
2023-02-07T04:23:12.302Z,6.13
2023-02-07T04:25:59.325Z,5.95
2023-02-07T04:28:39.382Z,6.10
2023-02-07T04:31:26.359Z,5.97
2023-02-07T04:34:13.340Z,5.75
2023-02-07T04:36:53.788Z,5.72
2023-02-07T04:39:40.314Z,6.30
2023-02-07T04:42:27.346Z,5.63
2023-02-07T04:45:07.305Z,5.88
2023-02-07T04:47:47.810Z,5.65
2023-02-07T04:50:34.284Z,5.88
2023-02-07T04:53:21.300Z,5.63
2023-02-07T04:56:02.449Z,5.90
2023-02-07T04:58:49.329Z,5.72
2023-02-07T05:01:29.424Z,5.60
2023-02-07T05:04:16.336Z,6.15
2023-02-07T05:06:56.379Z,6.88
2023-02-07T05:09:43.314Z,6.65
2023-02-07T05:12:23.389Z,7.43
2023-02-07T05:15:10.306Z,7.20
2023-02-07T05:17:52.284Z,6.78
2023-02-07T05:20:39.313Z,7.35
2023-02-07T05:23:27.310Z,7.43
2023-02-07T05:26:14.315Z,7.30
2023-02-07T05:29:01.306Z,7.55
2023-02-07T05:32:07.092Z,7.00
2023-02-07T05:34:46.307Z,7.25
2023-02-07T05:37:27.497Z,7.60
2023-02-07T05:40:15.309Z,8.05
2023-02-07T05:43:02.453Z,6.97
2023-02-07T05:45:42.313Z,6.70
2023-02-07T05:48:22.801Z,7.90
2023-02-07T05:51:09.310Z,7.05
2023-02-07T05:53:57.364Z,7.53
2023-02-07T05:56:37.313Z,7.50
2023-02-07T05:59:24.379Z,7.38
2023-02-07T06:02:04.288Z,7.38
2023-02-07T06:04:51.451Z,7.47
2023-02-07T06:07:38.289Z,7.18
2023-02-07T06:10:26.301Z,7.45
2023-02-07T06:13:06.835Z,7.50
2023-02-07T06:15:53.326Z,6.90
2023-02-07T06:18:40.296Z,6.75
2023-02-07T06:21:37.574Z,7.28
2023-02-07T06:24:28.304Z,7.28
2023-02-07T06:27:08.356Z,8.05
2023-02-07T06:29:55.315Z,8.05
2023-02-07T06:32:35.361Z,7.68
2023-02-07T06:35:22.312Z,7.35
2023-02-07T06:38:02.364Z,7.53
2023-02-07T06:40:50.305Z,7.45
2023-02-07T06:43:30.361Z,7.20
2023-02-07T06:46:17.320Z,7.10
2023-02-07T06:48:57.376Z,7.45
2023-02-07T06:51:44.307Z,7.88
2023-02-07T06:54:24.419Z,8.05
2023-02-07T06:57:12.306Z,7.63
2023-02-07T06:59:52.463Z,7.65
2023-02-07T07:02:39.346Z,7.63
2023-02-07T07:05:19.366Z,7.93
2023-02-07T07:08:06.316Z,7.95
2023-02-07T07:10:46.366Z,8.57
2023-02-07T07:13:33.293Z,8.23
2023-02-07T07:16:20.417Z,8.15
2023-02-07T07:19:00.821Z,8.15
2023-02-07T07:21:47.330Z,8.13
2023-02-07T07:24:34.708Z,8.73
2023-02-07T07:27:14.318Z,7.97
2023-02-07T07:30:01.376Z,8.10
2023-02-07T07:32:42.305Z,9.05
2023-02-07T07:35:29.862Z,8.35
2023-02-07T07:38:16.696Z,8.15
2023-02-07T07:43:45.703Z,8.10
2023-02-07T07:46:25.926Z,8.65
2023-02-07T07:49:12.307Z,8.48
2023-02-07T07:52:06.301Z,8.43
2023-02-07T07:54:53.303Z,8.68
2023-02-07T07:57:33.452Z,8.52
2023-02-07T08:00:21.312Z,8.25
2023-02-07T08:03:08.315Z,9.50
2023-02-07T08:05:56.441Z,8.48
2023-02-07T08:08:36.303Z,8.98
2023-02-07T08:11:16.862Z,9.25
2023-02-07T08:14:04.314Z,8.82
2023-02-07T08:16:51.309Z,9.25
2023-02-07T08:19:31.411Z,8.63
2023-02-07T08:22:20.311Z,9.13
2023-02-07T08:25:00.393Z,9.50
2023-02-07T08:27:47.340Z,8.93
2023-02-07T08:30:28.417Z,9.52
2023-02-07T08:36:04.309Z,8.90
2023-02-07T08:38:51.325Z,9.45
2023-02-07T08:41:31.369Z,8.88
2023-02-07T08:44:18.299Z,8.85
2023-02-07T08:46:58.361Z,9.68
2023-02-07T08:49:45.309Z,10.40
2023-02-07T08:52:32.319Z,9.63
2023-02-07T08:55:12.933Z,10.10
2023-02-07T08:57:59.309Z,10.35
2023-02-07T09:00:40.152Z,9.10
2023-02-07T09:06:15.322Z,8.63
2023-02-07T09:09:02.308Z,8.77
2023-02-07T09:14:29.357Z,9.43
2023-02-07T09:19:56.335Z,9.25
2023-02-07T09:25:43.542Z,8.43
2023-02-07T09:31:10.450Z,8.48
2023-02-07T09:33:50.834Z,8.75
2023-02-07T09:36:42.298Z,8.60
2023-02-07T09:39:29.487Z,8.18
2023-02-07T09:42:22.377Z,8.10
2023-02-07T09:47:57.367Z,8.43
2023-02-07T09:50:52.328Z,7.47
2023-02-07T09:54:00.382Z,7.93
2023-02-07T09:56:42.339Z,7.30
2023-02-07T09:59:50.336Z,7.85
2023-02-07T10:02:59.318Z,7.53
2023-02-07T10:06:17.901Z,8.52
2023-02-07T10:09:08.301Z,7.18
2023-02-07T10:12:17.314Z,7.28
2023-02-07T10:15:14.242Z,7.72
2023-02-07T10:18:22.331Z,6.43
2023-02-07T10:21:30.718Z,6.93
2023-02-07T10:24:32.356Z,6.75
2023-02-07T10:27:22.618Z,7.22
2023-02-07T10:30:27.402Z,6.43
2023-02-07T10:36:15.702Z,6.25
2023-02-07T10:39:11.311Z,6.50
2023-02-07T10:41:59.271Z,5.93
2023-02-07T10:44:39.330Z,5.60
2023-02-07T10:47:20.692Z,5.35
2023-02-07T10:50:10.513Z,5.22
2023-02-07T10:53:10.316Z,5.22
2023-02-07T10:55:57.338Z,5.03
2023-02-07T10:58:46.391Z,5.18
2023-02-07T11:01:35.400Z,5.20
2023-02-07T11:04:49.386Z,5.03
2023-02-07T11:07:47.470Z,4.75
2023-02-07T11:10:33.255Z,5.00
2023-02-07T11:13:23.322Z,4.80
2023-02-07T11:16:15.448Z,4.65
2023-02-07T11:19:09.326Z,5.05
2023-02-07T11:21:51.526Z,4.90
2023-02-07T11:24:42.349Z,5.30
2023-02-07T11:27:25.393Z,5.38
2023-02-07T11:30:16.355Z,5.03
2023-02-07T11:33:09.389Z,5.13
2023-02-07T11:36:17.332Z,4.82
2023-02-07T11:39:01.388Z,5.20
2023-02-07T11:41:48.362Z,5.22
2023-02-07T11:44:31.463Z,4.22
2023-02-07T11:47:28.360Z,4.40
2023-02-07T11:50:20.348Z,4.20
2023-02-07T11:53:02.104Z,4.10
2023-02-07T11:55:57.378Z,3.95
2023-02-07T11:58:49.617Z,3.60
2023-02-07T12:01:34.407Z,4.10
2023-02-07T12:04:28.341Z,3.38
2023-02-07T12:07:25.725Z,3.63
2023-02-07T12:10:37.355Z,3.60
2023-02-07T12:13:30.452Z,3.75
2023-02-07T12:16:28.378Z,3.70
2023-02-07T12:19:24.401Z,3.38
2023-02-07T12:22:21.407Z,3.60
2023-02-07T12:25:30.064Z,3.72
2023-02-07T12:28:30.429Z,3.10
2023-02-07T12:31:25.384Z,3.38
2023-02-07T12:34:29.358Z,3.22
2023-02-07T12:37:28.422Z,2.80
2023-02-07T12:40:35.380Z,2.95
2023-02-07T12:43:37.892Z,2.90
2023-02-07T12:46:34.375Z,2.63
2023-02-07T12:49:41.486Z,2.60
2023-02-07T12:52:49.366Z,2.47
2023-02-07T12:55:48.354Z,2.53
2023-02-07T13:01:52.383Z,2.70
2023-02-07T13:05:10.267Z,2.70
2023-02-07T13:08:22.372Z,2.33
2023-02-07T13:11:37.584Z,2.50
2023-02-07T13:14:38.377Z,2.55
2023-02-07T13:17:49.340Z,2.38
2023-02-07T13:20:47.366Z,2.17
2023-02-07T13:23:40.350Z,2.30
2023-02-07T13:26:26.233Z,2.38
2023-02-07T13:29:20.354Z,2.20
2023-02-07T13:32:05.459Z,2.20
2023-02-07T13:35:14.365Z,2.35
2023-02-07T13:37:57.398Z,2.05
2023-02-07T13:40:50.345Z,2.50
2023-02-07T13:43:50.910Z,2.42
2023-02-07T13:47:02.371Z,2.33
2023-02-07T13:50:11.366Z,2.30
2023-02-07T13:53:35.357Z,2.50
2023-02-07T13:56:41.374Z,2.90
2023-02-07T13:59:44.473Z,2.92
2023-02-07T14:02:31.375Z,2.63
2023-02-07T14:05:26.450Z,3.10
2023-02-07T14:08:29.359Z,2.90
2023-02-07T14:11:45.363Z,3.35
2023-02-07T14:14:34.460Z,2.90
2023-02-07T14:17:20.385Z,4.22
2023-02-07T14:20:02.942Z,3.10
2023-02-07T14:22:55.350Z,3.20
2023-02-07T14:28:47.340Z,4.20
2023-02-07T14:31:37.470Z,3.95
2023-02-07T14:34:31.360Z,4.20
2023-02-07T14:37:43.353Z,4.70
2023-02-07T14:40:38.647Z,4.13
2023-02-07T14:43:30.497Z,4.30
2023-02-07T14:46:15.413Z,4.72
2023-02-07T14:49:18.362Z,4.50
2023-02-07T14:52:25.380Z,4.25
2023-02-07T14:55:28.414Z,3.60
2023-02-07T14:58:13.369Z,3.83
2023-02-07T15:01:04.451Z,3.75
2023-02-07T15:03:44.397Z,3.53
2023-02-07T15:06:32.822Z,3.67
2023-02-07T15:09:13.384Z,3.80
2023-02-07T15:12:10.519Z,3.65
2023-02-07T15:15:03.372Z,3.70
2023-02-07T15:17:44.825Z,3.78
2023-02-07T15:20:36.390Z,3.60
2023-02-07T15:23:17.340Z,3.70
2023-02-07T15:26:04.356Z,3.65
2023-02-07T15:28:51.455Z,3.20
2023-02-07T15:31:31.483Z,3.22
2023-02-07T15:34:22.451Z,3.90
2023-02-07T15:37:09.374Z,3.67
2023-02-07T15:39:57.424Z,3.38
2023-02-07T15:42:44.376Z,3.25
2023-02-07T15:45:32.718Z,3.30
2023-02-07T15:48:28.362Z,3.55
2023-02-07T15:51:18.600Z,3.25
2023-02-07T15:54:14.371Z,3.00
2023-02-07T15:57:06.430Z,3.10
2023-02-07T15:59:48.729Z,3.20
2023-02-07T16:02:40.453Z,3.28
2023-02-07T16:05:30.380Z,3.83
2023-02-07T16:08:39.402Z,3.60
2023-02-07T16:11:34.493Z,3.63
2023-02-07T16:14:32.394Z,3.30
2023-02-07T16:17:13.007Z,3.60
2023-02-07T16:19:59.375Z,4.20
2023-02-07T16:25:42.396Z,3.78
2023-02-07T16:28:22.518Z,3.92
2023-02-07T16:31:09.496Z,3.97
2023-02-07T16:36:36.387Z,3.90
2023-02-07T16:42:10.395Z,3.90
2023-02-07T16:44:52.428Z,4.15
2023-02-07T16:47:39.400Z,4.32
2023-02-07T16:53:14.380Z,3.78
2023-02-07T16:55:56.763Z,4.03
2023-02-07T16:58:45.373Z,3.78
2023-02-07T17:01:32.408Z,4.00
2023-02-07T17:07:09.303Z,4.10
2023-02-07T17:09:57.385Z,4.63
2023-02-07T17:12:37.950Z,4.35
2023-02-07T17:15:24.389Z,4.70
2023-02-07T17:20:58.383Z,4.10
2023-02-07T17:26:38.416Z,4.13
2023-02-07T17:29:19.836Z,4.63
2023-02-07T17:32:06.408Z,4.75
2023-02-07T17:34:53.442Z,4.70
2023-02-07T17:37:33.383Z,5.10
2023-02-07T17:40:23.010Z,5.15
2023-02-07T17:43:09.375Z,4.53
2023-02-07T17:45:49.953Z,5.32
2023-02-07T17:48:39.382Z,5.38
2023-02-07T17:51:32.472Z,5.53
2023-02-07T17:54:19.377Z,5.60
2023-02-07T17:59:46.391Z,6.15
2023-02-07T18:02:26.463Z,6.05
2023-02-07T18:05:14.442Z,7.03
2023-02-07T18:08:02.384Z,6.28
2023-02-07T18:10:49.372Z,6.60
2023-02-07T18:13:29.438Z,6.55
2023-02-07T18:16:20.388Z,6.43
2023-02-07T18:19:03.629Z,6.45
2023-02-07T18:21:51.385Z,7.68
2023-02-07T18:24:31.458Z,7.53
2023-02-07T18:27:23.396Z,6.88
2023-02-07T18:30:03.459Z,6.78
2023-02-07T18:32:50.395Z,7.50
2023-02-07T18:35:30.419Z,7.35
2023-02-07T18:38:18.390Z,8.15
2023-02-07T18:40:58.456Z,8.50
2023-02-07T18:43:49.597Z,8.95
2023-02-07T18:46:29.718Z,9.25
2023-02-07T18:49:18.362Z,9.63
2023-02-07T18:51:58.437Z,10.25
2023-02-07T18:54:52.376Z,9.88
2023-02-07T18:57:32.988Z,8.90
2023-02-07T19:00:21.388Z,9.45
2023-02-07T19:03:08.615Z,8.00
2023-02-07T19:05:48.417Z,8.32
2023-02-07T19:08:29.246Z,7.85
2023-02-07T19:14:04.391Z,7.63
2023-02-07T19:16:51.400Z,7.75
2023-02-07T19:19:32.762Z,7.95
2023-02-07T19:25:21.507Z,7.38
2023-02-07T19:28:01.405Z,7.03
2023-02-07T19:30:49.525Z,7.13
2023-02-07T19:33:29.375Z,7.57
2023-02-07T19:36:17.481Z,8.30
2023-02-07T19:39:00.386Z,7.45
2023-02-07T19:41:47.486Z,7.55
2023-02-07T19:44:27.396Z,7.28
2023-02-07T19:47:14.448Z,8.18
2023-02-07T19:49:58.406Z,7.30
2023-02-07T19:52:45.381Z,7.05
2023-02-07T19:55:32.429Z,7.05
2023-02-07T19:58:12.387Z,7.95
2023-02-07T20:00:59.371Z,7.40
2023-02-07T20:03:46.456Z,7.43
2023-02-07T20:06:37.386Z,6.97
2023-02-07T20:09:24.389Z,7.28
2023-02-07T20:12:05.179Z,7.72
2023-02-07T20:14:51.391Z,7.95
2023-02-07T20:17:31.881Z,6.60
2023-02-07T20:20:19.393Z,7.30
2023-02-07T20:23:06.412Z,7.60
2023-02-07T20:25:53.393Z,7.32
2023-02-07T20:28:41.410Z,7.40
2023-02-07T20:31:23.606Z,7.63
2023-02-07T20:34:10.388Z,7.97
2023-02-07T20:36:50.464Z,7.55
2023-02-07T20:39:39.403Z,7.70
2023-02-07T20:42:26.398Z,7.43
2023-02-07T20:45:13.463Z,7.22
2023-02-07T20:47:53.418Z,7.63
2023-02-07T20:50:41.807Z,7.85
2023-02-07T20:53:21.438Z,7.25
2023-02-07T20:56:20.406Z,7.35
2023-02-07T20:59:01.461Z,7.95
2023-02-07T21:04:28.540Z,6.80
2023-02-07T21:07:15.416Z,7.43
2023-02-07T21:09:55.517Z,7.65
2023-02-07T21:12:42.380Z,7.18
2023-02-07T21:15:29.404Z,7.68
2023-02-07T21:18:10.075Z,7.30
2023-02-07T21:20:56.407Z,7.45
2023-02-07T21:23:43.397Z,8.18
2023-02-07T21:26:23.601Z,7.78
2023-02-07T21:29:12.405Z,8.18
2023-02-07T21:31:53.667Z,8.02
2023-02-07T21:34:40.397Z,7.95
2023-02-07T21:37:21.321Z,8.30
2023-02-07T21:42:48.517Z,8.38
2023-02-07T21:45:36.412Z,9.00
2023-02-07T21:48:16.443Z,8.65
2023-02-07T21:51:10.387Z,8.82
2023-02-07T21:53:57.414Z,8.88
2023-02-07T21:56:53.386Z,9.13
2023-02-07T21:59:42.458Z,8.82
2023-02-07T22:02:22.484Z,8.93
2023-02-07T22:05:09.438Z,9.25
2023-02-07T22:07:49.402Z,9.73
2023-02-07T22:10:29.873Z,9.00
2023-02-07T22:13:16.394Z,8.85
2023-02-07T22:16:03.459Z,8.98
2023-02-07T22:18:43.390Z,9.55
2023-02-07T22:21:50.596Z,9.63
2023-02-07T22:24:38.395Z,10.00
2023-02-07T22:27:18.890Z,9.35
2023-02-07T22:30:06.400Z,9.43
2023-02-07T22:32:46.911Z,10.80
2023-02-07T22:35:33.390Z,10.18
2023-02-07T22:38:20.468Z,9.27
2023-02-07T22:41:00.404Z,9.68
2023-02-07T22:43:41.365Z,10.00
2023-02-07T22:49:16.446Z,8.90
2023-02-07T22:51:57.414Z,8.60
2023-02-07T22:54:44.798Z,8.70
2023-02-07T22:57:24.373Z,8.90
2023-02-07T23:00:08.443Z,9.45
2023-02-07T23:02:55.400Z,8.82
2023-02-07T23:05:39.482Z,9.45
2023-02-07T23:08:26.390Z,9.13
2023-02-07T23:11:08.021Z,9.18
2023-02-07T23:16:43.448Z,8.77
2023-02-07T23:19:24.385Z,9.13
2023-02-07T23:24:51.415Z,9.75
2023-02-07T23:27:38.393Z,9.80
2023-02-07T23:30:27.411Z,9.45
2023-02-07T23:33:16.412Z,8.95
2023-02-07T23:35:56.445Z,9.45
2023-02-07T23:38:43.408Z,8.95
2023-02-07T23:41:23.450Z,9.23
2023-02-07T23:44:11.406Z,9.15
2023-02-07T23:46:58.403Z,8.98
2023-02-07T23:50:00.416Z,9.55
2023-02-07T23:52:40.925Z,9.07
2023-02-07T23:55:27.396Z,9.23
2023-02-07T23:58:14.465Z,9.13
